createdAt,value
2018-12-12T00:00:12.635Z,0
2018-12-12T00:00:45.746Z,0
2018-12-12T00:01:17.721Z,0
2018-12-12T00:01:49.701Z,0
2018-12-12T00:02:21.677Z,0
2018-12-12T00:02:53.651Z,0
2018-12-12T00:03:25.653Z,0
2018-12-12T00:03:57.621Z,0
2018-12-12T00:04:29.594Z,0
2018-12-12T00:05:01.564Z,0
2018-12-12T00:05:33.549Z,0
2018-12-12T00:06:05.591Z,0
2018-12-12T00:06:37.645Z,0
2018-12-12T00:07:09.617Z,0
2018-12-12T00:07:41.582Z,0
2018-12-12T00:08:13.557Z,0
2018-12-12T00:08:45.546Z,0
2018-12-12T00:09:17.526Z,0
2018-12-12T00:09:49.510Z,0
2018-12-12T00:10:21.491Z,0
2018-12-12T00:10:53.485Z,0
2018-12-12T00:11:26.058Z,0
2018-12-12T00:11:58.436Z,0
2018-12-12T00:12:30.452Z,0
2018-12-12T00:13:02.473Z,0
2018-12-12T00:13:34.916Z,0
2018-12-12T00:14:06.887Z,0
2018-12-12T00:14:40.059Z,0
2018-12-12T00:15:12.031Z,0
2018-12-12T00:15:44.021Z,0
2018-12-12T00:16:18.604Z,0
2018-12-12T00:16:50.829Z,0
2018-12-12T00:17:22.874Z,0
2018-12-12T00:17:54.842Z,0
2018-12-12T00:18:26.803Z,0
2018-12-12T00:18:59.013Z,0
2018-12-12T00:19:31.052Z,0
2018-12-12T00:20:03.032Z,0
2018-12-12T00:20:35.030Z,0
2018-12-12T00:21:07.000Z,0
2018-12-12T00:21:39.036Z,0
2018-12-12T00:22:11.008Z,0
2018-12-12T00:22:42.995Z,0
2018-12-12T00:23:14.968Z,0
2018-12-12T00:23:46.964Z,0
2018-12-12T00:24:18.939Z,0
2018-12-12T00:24:50.924Z,0
2018-12-12T00:25:22.892Z,0
2018-12-12T00:25:54.857Z,0
2018-12-12T00:26:26.833Z,0
2018-12-12T00:26:58.811Z,0
2018-12-12T00:27:30.774Z,0
2018-12-12T00:28:02.754Z,0
2018-12-12T00:28:34.726Z,0
2018-12-12T00:29:06.694Z,0
2018-12-12T00:29:38.645Z,0
2018-12-12T00:30:10.609Z,0
2018-12-12T00:30:42.590Z,0
2018-12-12T00:31:14.577Z,0
2018-12-12T00:31:46.556Z,0
2018-12-12T00:32:18.595Z,0
2018-12-12T00:32:50.561Z,0
2018-12-12T00:33:22.541Z,0
2018-12-12T00:33:54.514Z,0
2018-12-12T00:34:26.482Z,0
2018-12-12T00:34:58.461Z,0
2018-12-12T00:35:30.461Z,0
2018-12-12T00:36:02.444Z,0
2018-12-12T00:36:34.414Z,0
2018-12-12T00:37:06.380Z,0
2018-12-12T00:37:38.358Z,0
2018-12-12T00:38:10.323Z,0
2018-12-12T00:38:42.300Z,0
2018-12-12T00:39:14.294Z,0
2018-12-12T00:39:46.271Z,0
2018-12-12T00:40:18.243Z,0
2018-12-12T00:40:50.224Z,0
2018-12-12T00:41:22.195Z,0
2018-12-12T00:41:54.164Z,0
2018-12-12T00:42:26.141Z,0
2018-12-12T00:42:58.121Z,0
2018-12-12T00:43:30.091Z,0
2018-12-12T00:44:02.104Z,0
2018-12-12T00:44:34.087Z,0
2018-12-12T00:45:06.111Z,0
2018-12-12T00:45:38.087Z,0
2018-12-12T00:46:10.050Z,0
2018-12-12T00:46:42.024Z,0
2018-12-12T00:47:14.016Z,0
2018-12-12T00:47:45.997Z,0
2018-12-12T00:48:17.954Z,0
2018-12-12T00:48:49.929Z,0
2018-12-12T00:49:21.899Z,0
2018-12-12T00:49:53.859Z,0
2018-12-12T00:50:25.866Z,0
2018-12-12T00:50:57.845Z,0
2018-12-12T00:51:29.823Z,0
2018-12-12T00:52:01.798Z,0
2018-12-12T00:52:33.779Z,0
2018-12-12T00:53:05.753Z,0
2018-12-12T00:53:37.721Z,0
2018-12-12T00:54:09.703Z,0
2018-12-12T00:54:41.681Z,0
2018-12-12T00:55:13.660Z,0
2018-12-12T00:55:46.377Z,0
2018-12-12T00:56:18.406Z,0
2018-12-12T00:56:50.391Z,0
2018-12-12T00:57:22.380Z,0
2018-12-12T00:57:54.364Z,0
2018-12-12T00:58:26.321Z,0
2018-12-12T00:58:58.296Z,0
2018-12-12T00:59:30.298Z,0
2018-12-12T01:00:02.280Z,0
2018-12-12T01:00:34.256Z,0
2018-12-12T01:01:06.233Z,0
2018-12-12T01:01:38.200Z,0
2018-12-12T01:02:10.166Z,0
2018-12-12T01:02:42.145Z,0
2018-12-12T01:03:14.115Z,0
2018-12-12T01:03:46.095Z,0
2018-12-12T01:04:18.095Z,0
2018-12-12T01:04:50.085Z,0
2018-12-12T01:05:22.121Z,0
2018-12-12T01:05:54.105Z,0
2018-12-12T01:06:26.168Z,0
2018-12-12T01:06:58.127Z,0
2018-12-12T01:07:30.270Z,0
2018-12-12T01:08:02.243Z,0
2018-12-12T01:08:34.252Z,0
2018-12-12T01:09:06.219Z,0
2018-12-12T01:09:38.198Z,0
2018-12-12T01:10:10.176Z,0
2018-12-12T01:10:42.146Z,0
2018-12-12T01:11:14.114Z,0
2018-12-12T01:11:46.088Z,0
2018-12-12T01:12:18.070Z,0
2018-12-12T01:12:50.035Z,0
2018-12-12T01:13:22.047Z,0
2018-12-12T01:13:54.022Z,0
2018-12-12T01:14:25.987Z,0
2018-12-12T01:14:57.971Z,0
2018-12-12T01:15:29.960Z,0
2018-12-12T01:16:01.918Z,0
2018-12-12T01:16:33.894Z,0
2018-12-12T01:17:05.850Z,0
2018-12-12T01:17:37.825Z,0
2018-12-12T01:18:09.799Z,0
2018-12-12T01:18:41.833Z,0
2018-12-12T01:19:13.807Z,0
2018-12-12T01:19:45.788Z,0
2018-12-12T01:20:17.779Z,0
2018-12-12T01:20:49.768Z,0
2018-12-12T01:21:21.726Z,0
2018-12-12T01:21:53.712Z,0
2018-12-12T01:22:25.689Z,0
2018-12-12T01:22:57.664Z,0
2018-12-12T01:23:29.645Z,0
2018-12-12T01:24:01.614Z,0
2018-12-12T01:24:33.585Z,0
2018-12-12T01:25:05.551Z,0
2018-12-12T01:25:37.527Z,0
2018-12-12T01:26:09.505Z,0
2018-12-12T01:26:41.477Z,0
2018-12-12T01:27:13.446Z,0
2018-12-12T01:27:45.429Z,0
2018-12-12T01:28:17.391Z,0
2018-12-12T01:28:49.373Z,0
2018-12-12T01:29:21.395Z,0
2018-12-12T01:29:53.364Z,0
2018-12-12T01:30:25.326Z,0
2018-12-12T01:30:57.311Z,0
2018-12-12T01:31:29.295Z,0
2018-12-12T01:32:01.270Z,0
2018-12-12T01:32:33.233Z,0
2018-12-12T01:33:05.250Z,0
2018-12-12T01:33:37.220Z,0
2018-12-12T01:34:09.186Z,0
2018-12-12T01:34:41.190Z,0
2018-12-12T01:35:13.174Z,0
2018-12-12T01:35:45.148Z,0
2018-12-12T01:36:17.127Z,0
2018-12-12T01:36:49.128Z,0
2018-12-12T01:37:21.096Z,0
2018-12-12T01:37:53.075Z,0
2018-12-12T01:38:25.046Z,0
2018-12-12T01:38:57.023Z,0
2018-12-12T01:39:28.992Z,0
2018-12-12T01:40:00.944Z,0
2018-12-12T01:40:32.917Z,0
2018-12-12T01:41:04.886Z,0
2018-12-12T01:41:36.882Z,0
2018-12-12T01:42:08.853Z,0
2018-12-12T01:42:40.834Z,0
2018-12-12T01:43:12.786Z,0
2018-12-12T01:43:44.752Z,0
2018-12-12T01:44:16.729Z,0
2018-12-12T01:44:48.688Z,0
2018-12-12T01:45:20.724Z,0
2018-12-12T01:45:52.696Z,0
2018-12-12T01:46:24.694Z,0
2018-12-12T01:46:56.673Z,0
2018-12-12T01:47:28.638Z,0
2018-12-12T01:48:00.615Z,0
2018-12-12T01:48:32.602Z,0
2018-12-12T01:49:04.580Z,0
2018-12-12T01:49:36.544Z,0
2018-12-12T01:50:08.513Z,0
2018-12-12T01:50:40.483Z,0
2018-12-12T01:51:12.457Z,0
2018-12-12T01:51:44.428Z,0
2018-12-12T01:52:16.399Z,0
2018-12-12T01:52:48.366Z,0
2018-12-12T01:53:20.333Z,0
2018-12-12T01:53:52.304Z,0
2018-12-12T01:54:24.297Z,0
2018-12-12T01:54:56.262Z,0
2018-12-12T01:55:28.227Z,0
2018-12-12T01:56:00.205Z,0
2018-12-12T01:56:32.196Z,0
2018-12-12T01:57:04.166Z,0
2018-12-12T01:57:36.142Z,0
2018-12-12T01:58:08.117Z,0
2018-12-12T01:58:40.093Z,0
2018-12-12T01:59:12.071Z,0
2018-12-12T01:59:44.044Z,0
2018-12-12T02:00:16.002Z,0
2018-12-12T02:00:47.987Z,0
2018-12-12T02:01:19.965Z,0
2018-12-12T02:01:51.936Z,0
2018-12-12T02:02:23.912Z,0
2018-12-12T02:02:55.883Z,0
2018-12-12T02:03:27.850Z,0
2018-12-12T02:03:59.818Z,0
2018-12-12T02:04:31.798Z,0
2018-12-12T02:05:03.777Z,0
2018-12-12T02:05:35.777Z,0
2018-12-12T02:06:07.762Z,0
2018-12-12T02:06:39.754Z,0
2018-12-12T02:07:11.710Z,0
2018-12-12T02:07:43.686Z,0
2018-12-12T02:08:15.653Z,0
2018-12-12T02:08:47.628Z,0
2018-12-12T02:09:19.605Z,0
2018-12-12T02:09:51.590Z,0
2018-12-12T02:10:23.541Z,0
2018-12-12T02:10:55.521Z,0
2018-12-12T02:11:27.494Z,0
2018-12-12T02:11:59.463Z,0
2018-12-12T02:12:31.443Z,0
2018-12-12T02:13:03.421Z,0
2018-12-12T02:13:35.389Z,0
2018-12-12T02:14:07.361Z,0
2018-12-12T02:14:39.346Z,0
2018-12-12T02:15:11.324Z,0
2018-12-12T02:15:43.291Z,0
2018-12-12T02:16:15.269Z,0
2018-12-12T02:16:47.238Z,0
2018-12-12T02:17:19.198Z,0
2018-12-12T02:17:51.171Z,0
2018-12-12T02:18:23.154Z,0
2018-12-12T02:18:55.128Z,0
2018-12-12T02:19:27.100Z,0
2018-12-12T02:19:59.081Z,0
2018-12-12T02:20:31.066Z,0
2018-12-12T02:21:03.049Z,0
2018-12-12T02:21:35.023Z,0
2018-12-12T02:22:06.978Z,0
2018-12-12T02:22:38.932Z,0
2018-12-12T02:23:10.900Z,0
2018-12-12T02:23:42.865Z,0
2018-12-12T02:24:14.833Z,0
2018-12-12T02:24:46.828Z,0
2018-12-12T02:25:18.829Z,0
2018-12-12T02:25:50.808Z,0
2018-12-12T02:26:22.770Z,0
2018-12-12T02:26:54.740Z,0
2018-12-12T02:27:26.717Z,0
2018-12-12T02:27:58.745Z,0
2018-12-12T02:28:30.721Z,0
2018-12-12T02:29:02.761Z,0
2018-12-12T02:29:34.730Z,0
2018-12-12T02:30:06.703Z,0
2018-12-12T02:30:38.764Z,0
2018-12-12T02:31:10.770Z,0
2018-12-12T02:31:42.740Z,0
2018-12-12T02:32:14.708Z,0
2018-12-12T02:32:46.676Z,0
2018-12-12T02:33:18.646Z,0
2018-12-12T02:33:50.630Z,0
2018-12-12T02:34:22.627Z,0
2018-12-12T02:34:54.621Z,0
2018-12-12T02:35:26.602Z,0
2018-12-12T02:35:58.585Z,0
2018-12-12T02:36:30.559Z,0
2018-12-12T02:37:02.542Z,0
2018-12-12T02:37:34.521Z,0
2018-12-12T02:38:06.552Z,0
2018-12-12T02:38:38.612Z,0
2018-12-12T02:39:10.594Z,0
2018-12-12T02:39:42.564Z,0
2018-12-12T02:40:14.545Z,0
2018-12-12T02:40:46.529Z,0
2018-12-12T02:41:18.523Z,0
2018-12-12T02:41:50.500Z,0
2018-12-12T02:42:22.461Z,0
2018-12-12T02:42:54.431Z,0
2018-12-12T02:43:26.693Z,0
2018-12-12T02:43:59.221Z,0
2018-12-12T02:44:31.458Z,0
2018-12-12T02:45:03.469Z,0
2018-12-12T02:45:35.469Z,0
2018-12-12T02:46:07.431Z,0
2018-12-12T02:46:39.414Z,0
2018-12-12T02:47:11.382Z,0
2018-12-12T02:47:43.370Z,0
2018-12-12T02:48:15.350Z,0
2018-12-12T02:48:47.329Z,0
2018-12-12T02:49:19.311Z,0
2018-12-12T02:49:51.374Z,0
2018-12-12T02:50:23.357Z,0
2018-12-12T02:50:55.342Z,0
2018-12-12T02:51:27.321Z,0
2018-12-12T02:51:59.299Z,0
2018-12-12T02:52:31.259Z,0
2018-12-12T02:53:03.251Z,0
2018-12-12T02:53:35.240Z,0
2018-12-12T02:54:07.237Z,0
2018-12-12T02:54:39.218Z,0
2018-12-12T02:55:11.190Z,0
2018-12-12T02:55:43.163Z,0
2018-12-12T02:56:15.139Z,0
2018-12-12T02:56:47.103Z,0
2018-12-12T02:57:19.078Z,0
2018-12-12T02:57:51.065Z,0
2018-12-12T02:58:23.047Z,0
2018-12-12T02:58:55.082Z,0
2018-12-12T02:59:27.063Z,0
2018-12-12T02:59:59.034Z,0
2018-12-12T03:00:31.016Z,0
2018-12-12T03:01:03.013Z,0
2018-12-12T03:01:34.976Z,0
2018-12-12T03:02:06.949Z,0
2018-12-12T03:02:38.923Z,0
2018-12-12T03:03:10.901Z,0
2018-12-12T03:03:42.863Z,0
2018-12-12T03:04:14.853Z,0
2018-12-12T03:04:46.848Z,0
2018-12-12T03:05:18.927Z,0
2018-12-12T03:05:50.907Z,0
2018-12-12T03:06:22.880Z,0
2018-12-12T03:06:54.852Z,0
2018-12-12T03:07:26.833Z,0
2018-12-12T03:07:58.807Z,0
2018-12-12T03:08:30.791Z,0
2018-12-12T03:09:02.766Z,0
2018-12-12T03:09:34.753Z,0
2018-12-12T03:10:06.736Z,0
2018-12-12T03:10:38.705Z,0
2018-12-12T03:11:10.691Z,0
2018-12-12T03:11:42.673Z,0
2018-12-12T03:12:14.636Z,0
2018-12-12T03:12:46.599Z,0
2018-12-12T03:13:18.568Z,0
2018-12-12T03:13:50.561Z,0
2018-12-12T03:14:22.535Z,0
2018-12-12T03:14:54.506Z,0
2018-12-12T03:15:28.189Z,0
2018-12-12T03:16:00.336Z,0
2018-12-12T03:16:32.301Z,0
2018-12-12T03:17:04.266Z,0
2018-12-12T03:17:36.236Z,0
2018-12-12T03:18:08.215Z,0
2018-12-12T03:18:40.211Z,0
2018-12-12T03:19:12.201Z,0
2018-12-12T03:19:44.174Z,0
2018-12-12T03:20:16.164Z,0
2018-12-12T03:20:48.130Z,0
2018-12-12T03:21:20.095Z,0
2018-12-12T03:21:52.093Z,0
2018-12-12T03:22:24.065Z,0
2018-12-12T03:22:56.043Z,0
2018-12-12T03:23:28.017Z,0
2018-12-12T03:23:59.992Z,0
2018-12-12T03:24:31.957Z,0
2018-12-12T03:25:03.920Z,0
2018-12-12T03:25:35.887Z,0
2018-12-12T03:26:07.867Z,0
2018-12-12T03:26:39.849Z,0
2018-12-12T03:27:11.858Z,0
2018-12-12T03:27:43.826Z,0
2018-12-12T03:28:15.791Z,0
2018-12-12T03:28:47.768Z,0
2018-12-12T03:29:19.743Z,0
2018-12-12T03:29:51.729Z,0
2018-12-12T03:30:23.749Z,0
2018-12-12T03:30:55.763Z,0
2018-12-12T03:31:27.805Z,0
2018-12-12T03:31:59.781Z,0
2018-12-12T03:32:31.803Z,0
2018-12-12T03:33:03.807Z,0
2018-12-12T03:33:35.792Z,0
2018-12-12T03:34:07.772Z,0
2018-12-12T03:34:39.745Z,0
2018-12-12T03:35:11.748Z,0
2018-12-12T03:35:43.733Z,0
2018-12-12T03:36:15.715Z,0
2018-12-12T03:36:47.708Z,0
2018-12-12T03:37:19.696Z,0
2018-12-12T03:37:51.680Z,0
2018-12-12T03:38:23.662Z,0
2018-12-12T03:38:55.639Z,0
2018-12-12T03:39:27.616Z,0
2018-12-12T03:39:59.598Z,0
2018-12-12T03:40:31.592Z,0
2018-12-12T03:41:03.564Z,0
2018-12-12T03:41:35.618Z,0
2018-12-12T03:42:07.609Z,0
2018-12-12T03:42:39.618Z,0
2018-12-12T03:43:11.617Z,0
2018-12-12T03:43:43.608Z,0
2018-12-12T03:44:15.593Z,0
2018-12-12T03:44:47.580Z,0
2018-12-12T03:45:19.554Z,0
2018-12-12T03:45:51.513Z,0
2018-12-12T03:46:23.483Z,0
2018-12-12T03:46:55.461Z,0
2018-12-12T03:47:27.435Z,0
2018-12-12T03:47:59.421Z,0
2018-12-12T03:48:31.392Z,0
2018-12-12T03:49:03.376Z,0
2018-12-12T03:49:35.362Z,0
2018-12-12T03:50:07.352Z,0
2018-12-12T03:50:39.339Z,0
2018-12-12T03:51:11.345Z,0
2018-12-12T03:51:43.367Z,0
2018-12-12T03:52:15.364Z,0
2018-12-12T03:52:47.348Z,0
2018-12-12T03:53:19.326Z,0
2018-12-12T03:53:51.293Z,0
2018-12-12T03:54:23.255Z,0
2018-12-12T03:54:55.244Z,0
2018-12-12T03:55:27.249Z,0
2018-12-12T03:55:59.228Z,0
2018-12-12T03:56:31.184Z,0
2018-12-12T03:57:03.188Z,0
2018-12-12T03:57:35.159Z,0
2018-12-12T03:58:07.138Z,0
2018-12-12T03:58:39.105Z,0
2018-12-12T03:59:11.079Z,0
2018-12-12T03:59:43.054Z,0
2018-12-12T04:00:15.050Z,0
2018-12-12T04:00:47.018Z,0
2018-12-12T04:01:18.984Z,0
2018-12-12T04:01:50.954Z,0
2018-12-12T04:02:22.913Z,0
2018-12-12T04:02:54.907Z,0
2018-12-12T04:03:26.899Z,0
2018-12-12T04:03:58.868Z,0
2018-12-12T04:04:30.861Z,0
2018-12-12T04:05:02.859Z,0
2018-12-12T04:05:34.877Z,0
2018-12-12T04:06:06.875Z,0
2018-12-12T04:06:38.848Z,0
2018-12-12T04:07:10.824Z,0
2018-12-12T04:07:42.784Z,0
2018-12-12T04:08:15.147Z,0
2018-12-12T04:08:47.129Z,0
2018-12-12T04:09:19.090Z,0
2018-12-12T04:09:51.053Z,0
2018-12-12T04:10:23.015Z,0
2018-12-12T04:10:54.967Z,0
2018-12-12T04:11:26.934Z,0
2018-12-12T04:11:58.904Z,0
2018-12-12T04:12:30.864Z,0
2018-12-12T04:13:02.826Z,0
2018-12-12T04:13:34.787Z,0
2018-12-12T04:14:06.765Z,0
2018-12-12T04:14:38.783Z,0
2018-12-12T04:15:10.767Z,0
2018-12-12T04:15:42.725Z,0
2018-12-12T04:16:14.706Z,0
2018-12-12T04:16:46.683Z,0
2018-12-12T04:17:18.742Z,0
2018-12-12T04:17:50.707Z,0
2018-12-12T04:18:22.698Z,0
2018-12-12T04:18:54.677Z,0
2018-12-12T04:19:26.654Z,0
2018-12-12T04:19:58.638Z,0
2018-12-12T04:20:30.636Z,0
2018-12-12T04:21:02.616Z,0
2018-12-12T04:21:34.601Z,0
2018-12-12T04:22:06.573Z,0
2018-12-12T04:22:38.560Z,0
2018-12-12T04:23:10.544Z,0
2018-12-12T04:23:42.549Z,0
2018-12-12T04:24:14.536Z,0
2018-12-12T04:24:46.519Z,0
2018-12-12T04:25:18.494Z,0
2018-12-12T04:25:50.465Z,0
2018-12-12T04:26:22.455Z,0
2018-12-12T04:26:54.432Z,0
2018-12-12T04:27:26.397Z,0
2018-12-12T04:27:58.390Z,0
2018-12-12T04:28:30.371Z,0
2018-12-12T04:29:02.381Z,0
2018-12-12T04:29:34.347Z,0
2018-12-12T04:30:06.314Z,0
2018-12-12T04:30:38.310Z,0
2018-12-12T04:31:10.288Z,0
2018-12-12T04:31:42.268Z,0
2018-12-12T04:32:14.273Z,0
2018-12-12T04:32:46.260Z,0
2018-12-12T04:33:18.243Z,0
2018-12-12T04:33:50.221Z,0
2018-12-12T04:34:22.189Z,0
2018-12-12T04:34:55.725Z,0
2018-12-12T04:35:27.697Z,0
2018-12-12T04:35:59.681Z,0
2018-12-12T04:36:31.652Z,0
2018-12-12T04:37:03.627Z,0
2018-12-12T04:37:35.606Z,0
2018-12-12T04:38:07.583Z,0
2018-12-12T04:38:39.669Z,0
2018-12-12T04:39:11.639Z,0
2018-12-12T04:39:43.628Z,0
2018-12-12T04:40:15.605Z,0
2018-12-12T04:40:47.628Z,0
2018-12-12T04:41:19.604Z,0
2018-12-12T04:41:51.615Z,0
2018-12-12T04:42:23.595Z,0
2018-12-12T04:42:55.585Z,0
2018-12-12T04:43:27.560Z,0
2018-12-12T04:43:59.526Z,0
2018-12-12T04:44:31.515Z,0
2018-12-12T04:45:03.525Z,0
2018-12-12T04:45:35.490Z,0
2018-12-12T04:46:07.480Z,0
2018-12-12T04:46:39.465Z,0
2018-12-12T04:47:11.480Z,0
2018-12-12T04:47:43.469Z,0
2018-12-12T04:48:15.445Z,0
2018-12-12T04:48:47.428Z,0
2018-12-12T04:49:19.401Z,0
2018-12-12T04:49:51.370Z,0
2018-12-12T04:50:23.356Z,0
2018-12-12T04:50:55.319Z,0
2018-12-12T04:51:27.296Z,0
2018-12-12T04:51:59.266Z,0
2018-12-12T04:52:31.244Z,0
2018-12-12T04:53:03.220Z,0
2018-12-12T04:53:35.195Z,0
2018-12-12T04:54:07.191Z,0
2018-12-12T04:54:39.170Z,0
2018-12-12T04:55:11.245Z,0
2018-12-12T04:55:43.212Z,0
2018-12-12T04:56:15.187Z,0
2018-12-12T04:56:47.164Z,0
2018-12-12T04:57:19.131Z,0
2018-12-12T04:57:51.122Z,0
2018-12-12T04:58:23.111Z,0
2018-12-12T04:58:55.115Z,0
2018-12-12T04:59:27.122Z,0
2018-12-12T04:59:59.102Z,0
2018-12-12T05:00:31.096Z,0
2018-12-12T05:01:03.058Z,0
2018-12-12T05:01:35.034Z,0
2018-12-12T05:02:07.025Z,0
2018-12-12T05:02:39.112Z,0
2018-12-12T05:03:11.083Z,0
2018-12-12T05:03:43.053Z,0
2018-12-12T05:04:15.021Z,0
2018-12-12T05:04:47.003Z,0
2018-12-12T05:05:18.972Z,0
2018-12-12T05:05:50.941Z,0
2018-12-12T05:06:22.922Z,0
2018-12-12T05:06:54.890Z,0
2018-12-12T05:07:26.876Z,0
2018-12-12T05:07:58.864Z,0
2018-12-12T05:08:30.839Z,0
2018-12-12T05:09:02.827Z,0
2018-12-12T05:09:34.799Z,0
2018-12-12T05:10:06.777Z,0
2018-12-12T05:10:38.754Z,0
2018-12-12T05:11:10.747Z,0
2018-12-12T05:11:42.712Z,0
2018-12-12T05:12:14.681Z,0
2018-12-12T05:12:46.655Z,0
2018-12-12T05:13:18.649Z,0
2018-12-12T05:13:50.627Z,0
2018-12-12T05:14:22.635Z,0
2018-12-12T05:14:54.615Z,0
2018-12-12T05:15:26.653Z,0
2018-12-12T05:15:58.627Z,0
2018-12-12T05:16:30.603Z,0
2018-12-12T05:17:02.557Z,0
2018-12-12T05:17:34.539Z,0
2018-12-12T05:18:06.510Z,0
2018-12-12T05:18:38.485Z,0
2018-12-12T05:19:10.447Z,0
2018-12-12T05:19:42.445Z,0
2018-12-12T05:20:14.417Z,0
2018-12-12T05:20:46.396Z,0
2018-12-12T05:21:18.425Z,0
2018-12-12T05:21:50.470Z,0
2018-12-12T05:22:22.438Z,0
2018-12-12T05:22:54.408Z,0
2018-12-12T05:23:26.381Z,0
2018-12-12T05:23:58.347Z,0
2018-12-12T05:24:30.311Z,0
2018-12-12T05:25:02.298Z,0
2018-12-12T05:25:34.257Z,0
2018-12-12T05:26:06.257Z,0
2018-12-12T05:26:38.219Z,0
2018-12-12T05:27:10.191Z,0
2018-12-12T05:27:42.159Z,0
2018-12-12T05:28:14.128Z,0
2018-12-12T05:28:46.095Z,0
2018-12-12T05:29:18.064Z,0
2018-12-12T05:29:50.030Z,0
2018-12-12T05:30:22.009Z,0
2018-12-12T05:30:53.978Z,0
2018-12-12T05:31:25.978Z,0
2018-12-12T05:31:57.950Z,0
2018-12-12T05:32:29.986Z,0
2018-12-12T05:33:01.972Z,0
2018-12-12T05:33:33.949Z,0
2018-12-12T05:34:05.938Z,0
2018-12-12T05:34:37.915Z,0
2018-12-12T05:35:09.879Z,0
2018-12-12T05:35:41.847Z,0
2018-12-12T05:36:13.835Z,0
2018-12-12T05:36:45.800Z,0
2018-12-12T05:37:17.799Z,0
2018-12-12T05:37:53.351Z,0
2018-12-12T05:38:25.338Z,0
2018-12-12T05:38:57.336Z,0
2018-12-12T05:39:29.310Z,0
2018-12-12T05:40:01.352Z,0
2018-12-12T05:40:33.344Z,0
2018-12-12T05:41:05.300Z,0
2018-12-12T05:41:37.317Z,0
2018-12-12T05:42:09.287Z,0
2018-12-12T05:42:41.248Z,0
2018-12-12T05:43:13.208Z,0
2018-12-12T05:43:45.186Z,0
2018-12-12T05:44:17.182Z,0
2018-12-12T05:44:49.226Z,0
2018-12-12T05:45:21.207Z,0
2018-12-12T05:45:53.187Z,0
2018-12-12T05:46:25.164Z,0
2018-12-12T05:46:57.160Z,0
2018-12-12T05:47:29.130Z,0
2018-12-12T05:48:01.116Z,0
2018-12-12T05:48:33.136Z,0
2018-12-12T05:49:05.093Z,0
2018-12-12T05:49:37.692Z,0
2018-12-12T05:50:09.684Z,0
2018-12-12T05:50:41.665Z,0
2018-12-12T05:51:13.646Z,0
2018-12-12T05:51:46.063Z,0
2018-12-12T05:52:18.409Z,0
2018-12-12T05:52:50.653Z,0
2018-12-12T05:53:22.887Z,0
2018-12-12T05:53:54.890Z,0
2018-12-12T05:54:26.981Z,0
2018-12-12T05:54:58.953Z,0
2018-12-12T05:55:30.935Z,0
2018-12-12T05:56:03.912Z,0
2018-12-12T05:56:35.873Z,0
2018-12-12T05:57:07.885Z,0
2018-12-12T05:57:39.847Z,0
2018-12-12T05:58:12.394Z,0
2018-12-12T05:58:44.382Z,0
2018-12-12T05:59:16.358Z,0
2018-12-12T05:59:48.437Z,0
2018-12-12T06:00:20.427Z,0
2018-12-12T06:00:52.424Z,0
2018-12-12T06:01:24.432Z,0
2018-12-12T06:01:56.527Z,0
2018-12-12T06:02:28.558Z,0
2018-12-12T06:03:00.540Z,0
2018-12-12T06:03:33.738Z,0
2018-12-12T06:04:05.845Z,0
2018-12-12T06:04:37.856Z,0
2018-12-12T06:05:09.821Z,0
2018-12-12T06:05:41.784Z,0
2018-12-12T06:06:13.829Z,0
2018-12-12T06:06:45.821Z,0
2018-12-12T06:07:17.792Z,0
2018-12-12T06:07:49.819Z,0
2018-12-12T06:08:21.777Z,0
2018-12-12T06:08:53.769Z,0
2018-12-12T06:09:25.757Z,0
2018-12-12T06:09:57.735Z,0
2018-12-12T06:10:29.717Z,0
2018-12-12T06:11:01.693Z,0
2018-12-12T06:11:33.666Z,0
2018-12-12T06:12:05.682Z,0
2018-12-12T06:12:37.664Z,0
2018-12-12T06:13:09.661Z,0
2018-12-12T06:13:41.645Z,0
2018-12-12T06:14:13.652Z,0
2018-12-12T06:14:45.705Z,0
2018-12-12T06:15:17.675Z,0
2018-12-12T06:15:49.647Z,0
2018-12-12T06:16:21.652Z,0
2018-12-12T06:16:53.676Z,0
2018-12-12T06:17:25.691Z,0
2018-12-12T06:17:57.681Z,0
2018-12-12T06:18:29.648Z,0
2018-12-12T06:19:01.696Z,0
2018-12-12T06:19:33.664Z,0
2018-12-12T06:20:05.639Z,0
2018-12-12T06:20:37.622Z,0
2018-12-12T06:21:09.600Z,0
2018-12-12T06:21:41.606Z,0
2018-12-12T06:22:13.594Z,0
2018-12-12T06:22:45.565Z,0
2018-12-12T06:23:17.554Z,0
2018-12-12T06:23:49.533Z,0
2018-12-12T06:24:21.492Z,0
2018-12-12T06:24:53.485Z,0
2018-12-12T06:25:25.469Z,0
2018-12-12T06:25:57.441Z,0
2018-12-12T06:26:29.456Z,0
2018-12-12T06:27:01.530Z,0
2018-12-12T06:27:33.594Z,0
2018-12-12T06:28:05.585Z,0
2018-12-12T06:28:37.573Z,0
2018-12-12T06:29:09.564Z,0
2018-12-12T06:29:41.558Z,0
2018-12-12T06:30:13.568Z,0
2018-12-12T06:30:45.561Z,0
2018-12-12T06:31:17.541Z,0
2018-12-12T06:31:49.632Z,0
2018-12-12T06:32:21.650Z,0
2018-12-12T06:32:53.638Z,0
2018-12-12T06:33:25.744Z,0
2018-12-12T06:33:58.291Z,0
2018-12-12T06:34:30.568Z,0
2018-12-12T06:35:02.885Z,0
2018-12-12T06:35:35.690Z,0
2018-12-12T06:36:09.036Z,0
2018-12-12T06:36:41.403Z,0
2018-12-12T06:37:14.378Z,0
2018-12-12T06:37:47.949Z,0
2018-12-12T06:38:21.271Z,0
2018-12-12T06:38:54.724Z,0
2018-12-12T06:39:26.969Z,0
2018-12-12T06:39:59.092Z,0
2018-12-12T06:40:31.248Z,0
2018-12-12T06:41:03.631Z,0
2018-12-12T06:41:36.392Z,0
2018-12-12T06:42:08.566Z,0
2018-12-12T06:42:40.651Z,0
2018-12-12T06:43:12.635Z,0
2018-12-12T06:43:44.618Z,0
2018-12-12T06:44:16.891Z,0
2018-12-12T06:44:48.920Z,0
2018-12-12T06:45:20.908Z,0
2018-12-12T06:45:52.884Z,0
2018-12-12T06:46:26.495Z,0
2018-12-12T06:46:58.583Z,0
2018-12-12T06:47:30.652Z,0
2018-12-12T06:48:02.623Z,0
2018-12-12T06:48:34.577Z,0
2018-12-12T06:49:06.579Z,0
2018-12-12T06:49:38.575Z,0
2018-12-12T06:50:10.576Z,0
2018-12-12T06:50:42.565Z,0
2018-12-12T06:51:14.525Z,0
2018-12-12T06:51:46.512Z,0
2018-12-12T06:52:18.475Z,0
2018-12-12T06:52:50.449Z,0
2018-12-12T06:53:22.415Z,0
2018-12-12T06:53:54.392Z,0
2018-12-12T06:54:26.408Z,0
2018-12-12T06:54:58.378Z,0
2018-12-12T06:55:30.327Z,0
2018-12-12T06:56:02.698Z,0
2018-12-12T06:56:34.688Z,0
2018-12-12T06:57:06.732Z,0
2018-12-12T06:57:38.692Z,0
2018-12-12T06:58:10.695Z,0
2018-12-12T06:58:42.690Z,0
2018-12-12T06:59:14.660Z,0
2018-12-12T06:59:46.652Z,0
2018-12-12T07:00:18.634Z,0
2018-12-12T07:00:50.601Z,0
2018-12-12T07:01:22.591Z,0
2018-12-12T07:01:54.567Z,0
2018-12-12T07:02:26.530Z,0
2018-12-12T07:02:58.531Z,4
2018-12-12T07:03:30.538Z,4
2018-12-12T07:04:02.531Z,4
2018-12-12T07:04:34.490Z,4
2018-12-12T07:05:06.497Z,4
2018-12-12T07:05:38.483Z,0
2018-12-12T07:06:10.476Z,0
2018-12-12T07:06:42.454Z,0
2018-12-12T07:07:14.441Z,0
2018-12-12T07:07:46.401Z,4
2018-12-12T07:08:18.385Z,4
2018-12-12T07:08:50.344Z,4
2018-12-12T07:09:23.665Z,4
2018-12-12T07:09:55.656Z,4
2018-12-12T07:10:27.636Z,4
2018-12-12T07:10:59.605Z,4
2018-12-12T07:11:31.579Z,4
2018-12-12T07:12:03.554Z,4
2018-12-12T07:12:35.504Z,4
2018-12-12T07:13:07.474Z,4
2018-12-12T07:13:39.451Z,8
2018-12-12T07:14:11.438Z,8
2018-12-12T07:14:43.419Z,4
2018-12-12T07:15:15.414Z,4
2018-12-12T07:15:47.408Z,8
2018-12-12T07:16:19.387Z,8
2018-12-12T07:16:51.366Z,8
2018-12-12T07:17:23.345Z,12
2018-12-12T07:17:55.300Z,8
2018-12-12T07:18:27.268Z,8
2018-12-12T07:18:59.242Z,12
2018-12-12T07:19:31.224Z,12
2018-12-12T07:20:03.203Z,8
2018-12-12T07:20:35.180Z,12
2018-12-12T07:21:07.155Z,12
2018-12-12T07:21:39.136Z,12
2018-12-12T07:22:11.141Z,12
2018-12-12T07:22:43.098Z,16
2018-12-12T07:23:15.087Z,16
2018-12-12T07:23:47.046Z,20
2018-12-12T07:24:19.010Z,16
2018-12-12T07:24:50.998Z,20
2018-12-12T07:25:22.973Z,16
2018-12-12T07:25:54.942Z,20
2018-12-12T07:26:26.938Z,24
2018-12-12T07:26:58.910Z,24
2018-12-12T07:27:30.909Z,28
2018-12-12T07:28:02.896Z,24
2018-12-12T07:28:34.904Z,28
2018-12-12T07:29:12.507Z,28
2018-12-12T07:29:44.500Z,32
2018-12-12T07:30:16.471Z,32
2018-12-12T07:30:48.452Z,36
2018-12-12T07:31:20.429Z,36
2018-12-12T07:31:52.421Z,40
2018-12-12T07:32:27.402Z,40
2018-12-12T07:32:59.365Z,44
2018-12-12T07:33:31.353Z,44
2018-12-12T07:34:03.306Z,44
2018-12-12T07:34:35.265Z,44
2018-12-12T07:35:07.252Z,48
2018-12-12T07:35:39.213Z,48
2018-12-12T07:36:11.219Z,48
2018-12-12T07:36:43.260Z,52
2018-12-12T07:37:15.293Z,56
2018-12-12T07:37:47.266Z,56
2018-12-12T07:38:19.250Z,60
2018-12-12T07:38:51.238Z,60
2018-12-12T07:39:23.210Z,60
2018-12-12T07:39:56.557Z,68
2018-12-12T07:40:28.536Z,68
2018-12-12T07:41:00.498Z,68
2018-12-12T07:41:32.483Z,72
2018-12-12T07:42:04.485Z,72
2018-12-12T07:42:36.457Z,76
2018-12-12T07:43:08.439Z,76
2018-12-12T07:43:40.441Z,76
2018-12-12T07:44:12.430Z,80
2018-12-12T07:44:44.429Z,84
2018-12-12T07:45:17.881Z,84
2018-12-12T07:45:49.920Z,88
2018-12-12T07:46:22.058Z,92
2018-12-12T07:46:54.036Z,96
2018-12-12T07:47:26.025Z,100
2018-12-12T07:48:02.708Z,104
2018-12-12T07:48:34.698Z,108
2018-12-12T07:49:06.689Z,112
2018-12-12T07:49:38.658Z,120
2018-12-12T07:50:10.633Z,124
2018-12-12T07:50:44.004Z,132
2018-12-12T07:51:16.134Z,136
2018-12-12T07:51:48.110Z,144
2018-12-12T07:52:20.076Z,152